Lampe, Missouri
Current Conditions -  °F | °C
As of 10:55 AM on Monday 22 Dec 2014 (Local Time) from KFWB Reporting Station
Haze Haze  
Wind Chill: 43°   Ceiling: 300
Heat Index: 46°   Visibility: 1.5mi
Dew Point: 46°   Wind: 7mph
Humidity: 100%   Direction: 110°ESE
Pressure: 29.6"   Gusts: NA
Location:  36.56°N, 93.44°W
Report Text: KFWB 221655Z AUTO 11006KT 1 1/2SM BR OVC003 08/08 A2960 RMK AO2
Loading
Personal Weather Stations






























Interactive Weather Map New forecast layout! Learn more

10-Day Weather Forecast

Advertisements
Track Severe Weather on mobile